Bethany, Nebraska
Current Conditions -  °F | °C
As of 2:54 PM on Saturday 20 Dec 2014 (Local Time) from KLNK Reporting Station
Haze Haze  
Wind Chill: 30°   Ceiling: 700
Heat Index: 36°   Visibility: 6mi
Dew Point: 32°   Wind: 7mph
Humidity: 86%   Direction: 160°SSE
Pressure: 30.05"   Gusts: NA
Location:  40.8244°N, 96.6054°W
Report Text: KLNK 202054Z 16006KT 6SM BR OVC007 02/00 A3005 RMK AO2 SLP187 T00220000 56017
Loading
Personal Weather Stations






























Interactive Weather Map New forecast layout! Learn more

10-Day Weather Forecast

Advertisements
Track Severe Weather on mobile